sensor_id;sensor_type;location;lat;lon;timestamp;P1;durP1;ratioP1;P2;durP2;ratioP2
21671;SDS011;10997;52.242;8.168;2022-07-09T00:00:00;14.93;;;7.32;;
21671;SDS011;10997;52.242;8.168;2022-07-09T00:05:04;13.70;;;7.13;;
21671;SDS011;10997;52.242;8.168;2022-07-09T00:10:05;13.50;;;7.60;;
21671;SDS011;10997;52.242;8.168;2022-07-09T00:15:06;13.20;;;7.38;;
21671;SDS011;10997;52.242;8.168;2022-07-09T00:20:07;12.80;;;6.60;;
21671;SDS011;10997;52.242;8.168;2022-07-09T00:25:09;14.23;;;7.63;;
21671;SDS011;10997;52.242;8.168;2022-07-09T00:30:09;14.85;;;7.95;;
21671;SDS011;10997;52.242;8.168;2022-07-09T00:35:10;15.25;;;7.50;;
21671;SDS011;10997;52.242;8.168;2022-07-09T00:40:11;16.60;;;8.25;;
21671;SDS011;10997;52.242;8.168;2022-07-09T00:45:12;15.50;;;7.57;;
21671;SDS011;10997;52.242;8.168;2022-07-09T00:50:13;14.80;;;7.40;;
21671;SDS011;10997;52.242;8.168;2022-07-09T00:55:14;17.33;;;7.90;;
21671;SDS011;10997;52.242;8.168;2022-07-09T01:00:15;16.38;;;7.97;;
21671;SDS011;10997;52.242;8.168;2022-07-09T01:05:18;20.15;;;8.20;;
21671;SDS011;10997;52.242;8.168;2022-07-09T01:10:18;18.27;;;8.10;;
21671;SDS011;10997;52.242;8.168;2022-07-09T01:15:21;16.27;;;8.15;;
21671;SDS011;10997;52.242;8.168;2022-07-09T01:20:22;16.73;;;8.23;;
21671;SDS011;10997;52.242;8.168;2022-07-09T01:30:40;14.15;;;8.43;;
21671;SDS011;10997;52.242;8.168;2022-07-09T01:35:41;14.32;;;8.13;;
21671;SDS011;10997;52.242;8.168;2022-07-09T01:40:42;17.88;;;8.18;;
21671;SDS011;10997;52.242;8.168;2022-07-09T01:45:43;16.90;;;8.13;;
21671;SDS011;10997;52.242;8.168;2022-07-09T01:50:44;18.25;;;7.70;;
21671;SDS011;10997;52.242;8.168;2022-07-09T01:55:44;16.20;;;8.55;;
21671;SDS011;10997;52.242;8.168;2022-07-09T02:00:45;18.58;;;8.85;;
21671;SDS011;10997;52.242;8.168;2022-07-09T02:05:46;17.25;;;9.38;;
21671;SDS011;10997;52.242;8.168;2022-07-09T02:10:46;23.08;;;9.48;;
21671;SDS011;10997;52.242;8.168;2022-07-09T02:15:47;19.75;;;11.27;;
21671;SDS011;10997;52.242;8.168;2022-07-09T02:20:48;20.00;;;10.63;;
21671;SDS011;10997;52.242;8.168;2022-07-09T02:25:48;20.25;;;10.45;;
21671;SDS011;10997;52.242;8.168;2022-07-09T02:30:49;22.55;;;11.10;;
21671;SDS011;10997;52.242;8.168;2022-07-09T02:35:50;27.08;;;12.48;;
21671;SDS011;10997;52.242;8.168;2022-07-09T02:40:51;27.45;;;14.98;;
21671;SDS011;10997;52.242;8.168;2022-07-09T02:45:51;25.45;;;15.82;;
21671;SDS011;10997;52.242;8.168;2022-07-09T02:50:55;26.27;;;18.95;;
21671;SDS011;10997;52.242;8.168;2022-07-09T02:55:57;27.02;;;19.42;;
21671;SDS011;10997;52.242;8.168;2022-07-09T03:00:58;35.50;;;21.75;;
21671;SDS011;10997;52.242;8.168;2022-07-09T03:05:59;30.98;;;21.38;;
21671;SDS011;10997;52.242;8.168;2022-07-09T03:11:00;35.28;;;21.08;;
21671;SDS011;10997;52.242;8.168;2022-07-09T03:16:01;41.92;;;24.13;;
21671;SDS011;10997;52.242;8.168;2022-07-09T03:21:03;40.33;;;24.83;;
21671;SDS011;10997;52.242;8.168;2022-07-09T03:26:03;36.95;;;23.70;;
21671;SDS011;10997;52.242;8.168;2022-07-09T03:31:05;35.85;;;23.60;;
21671;SDS011;10997;52.242;8.168;2022-07-09T03:36:06;46.75;;;25.98;;
21671;SDS011;10997;52.242;8.168;2022-07-09T03:41:07;40.78;;;25.65;;
21671;SDS011;10997;52.242;8.168;2022-07-09T03:46:07;43.97;;;27.27;;
21671;SDS011;10997;52.242;8.168;2022-07-09T03:51:08;42.25;;;28.15;;
21671;SDS011;10997;52.242;8.168;2022-07-09T03:56:09;46.60;;;27.20;;
21671;SDS011;10997;52.242;8.168;2022-07-09T04:01:09;47.55;;;29.02;;
21671;SDS011;10997;52.242;8.168;2022-07-09T04:06:10;44.65;;;25.65;;
21671;SDS011;10997;52.242;8.168;2022-07-09T04:11:11;46.03;;;25.80;;
21671;SDS011;10997;52.242;8.168;2022-07-09T04:16:12;44.40;;;25.25;;
21671;SDS011;10997;52.242;8.168;2022-07-09T04:21:12;44.53;;;24.88;;
21671;SDS011;10997;52.242;8.168;2022-07-09T04:26:14;45.08;;;23.92;;
21671;SDS011;10997;52.242;8.168;2022-07-09T04:31:15;39.75;;;23.52;;
21671;SDS011;10997;52.242;8.168;2022-07-09T04:36:18;36.50;;;20.10;;
21671;SDS011;10997;52.242;8.168;2022-07-09T04:41:18;34.78;;;20.40;;
21671;SDS011;10997;52.242;8.168;2022-07-09T04:46:19;34.92;;;21.27;;
21671;SDS011;10997;52.242;8.168;2022-07-09T04:51:22;36.35;;;20.92;;
21671;SDS011;10997;52.242;8.168;2022-07-09T04:56:22;31.42;;;20.27;;
21671;SDS011;10997;52.242;8.168;2022-07-09T05:01:26;34.28;;;21.27;;
21671;SDS011;10997;52.242;8.168;2022-07-09T05:11:30;33.85;;;20.45;;
21671;SDS011;10997;52.242;8.168;2022-07-09T05:16:30;32.20;;;19.55;;
21671;SDS011;10997;52.242;8.168;2022-07-09T05:21:31;27.73;;;17.63;;
21671;SDS011;10997;52.242;8.168;2022-07-09T05:26:32;25.88;;;18.73;;
21671;SDS011;10997;52.242;8.168;2022-07-09T05:31:33;22.73;;;15.35;;
21671;SDS011;10997;52.242;8.168;2022-07-09T05:36:34;23.05;;;13.85;;
21671;SDS011;10997;52.242;8.168;2022-07-09T05:41:35;21.90;;;13.73;;
21671;SDS011;10997;52.242;8.168;2022-07-09T05:46:36;21.38;;;12.50;;
21671;SDS011;10997;52.242;8.168;2022-07-09T05:51:36;16.00;;;11.23;;
21671;SDS011;10997;52.242;8.168;2022-07-09T05:56:37;14.13;;;10.13;;
21671;SDS011;10997;52.242;8.168;2022-07-09T06:01:38;15.90;;;9.30;;
21671;SDS011;10997;52.242;8.168;2022-07-09T06:06:41;13.45;;;8.50;;
21671;SDS011;10997;52.242;8.168;2022-07-09T06:11:42;13.07;;;8.35;;
21671;SDS011;10997;52.242;8.168;2022-07-09T06:16:43;14.55;;;7.70;;
21671;SDS011;10997;52.242;8.168;2022-07-09T06:21:46;10.85;;;6.90;;
21671;SDS011;10997;52.242;8.168;2022-07-09T06:26:47;12.00;;;6.90;;
21671;SDS011;10997;52.242;8.168;2022-07-09T06:31:48;8.00;;;6.00;;
21671;SDS011;10997;52.242;8.168;2022-07-09T06:36:48;8.95;;;5.45;;
21671;SDS011;10997;52.242;8.168;2022-07-09T06:41:50;7.90;;;5.57;;
21671;SDS011;10997;52.242;8.168;2022-07-09T06:46:50;10.30;;;4.85;;
21671;SDS011;10997;52.242;8.168;2022-07-09T06:51:51;8.52;;;4.88;;
21671;SDS011;10997;52.242;8.168;2022-07-09T06:56:52;10.27;;;4.40;;
21671;SDS011;10997;52.242;8.168;2022-07-09T07:01:53;8.25;;;4.28;;
21671;SDS011;10997;52.242;8.168;2022-07-09T07:06:54;8.57;;;3.65;;
21671;SDS011;10997;52.242;8.168;2022-07-09T07:11:54;5.40;;;3.05;;
21671;SDS011;10997;52.242;8.168;2022-07-09T07:16:55;6.25;;;3.33;;
21671;SDS011;10997;52.242;8.168;2022-07-09T07:21:56;7.38;;;2.92;;
21671;SDS011;10997;52.242;8.168;2022-07-09T07:26:57;5.80;;;2.58;;
21671;SDS011;10997;52.242;8.168;2022-07-09T07:31:57;4.18;;;2.70;;
21671;SDS011;10997;52.242;8.168;2022-07-09T07:36:59;4.30;;;2.42;;
21671;SDS011;10997;52.242;8.168;2022-07-09T07:42:00;4.07;;;2.38;;
21671;SDS011;10997;52.242;8.168;2022-07-09T07:47:01;5.10;;;2.60;;
21671;SDS011;10997;52.242;8.168;2022-07-09T07:52:01;4.55;;;2.70;;
21671;SDS011;10997;52.242;8.168;2022-07-09T07:57:06;8.88;;;2.70;;
21671;SDS011;10997;52.242;8.168;2022-07-09T08:02:07;4.82;;;2.38;;
21671;SDS011;10997;52.242;8.168;2022-07-09T08:07:08;5.07;;;2.42;;
21671;SDS011;10997;52.242;8.168;2022-07-09T08:12:08;5.05;;;2.40;;
21671;SDS011;10997;52.242;8.168;2022-07-09T08:17:09;2.80;;;2.30;;
21671;SDS011;10997;52.242;8.168;2022-07-09T08:22:10;5.15;;;2.55;;
21671;SDS011;10997;52.242;8.168;2022-07-09T08:27:10;7.68;;;2.88;;
21671;SDS011;10997;52.242;8.168;2022-07-09T08:32:11;4.68;;;2.40;;
21671;SDS011;10997;52.242;8.168;2022-07-09T08:37:12;4.97;;;2.85;;
21671;SDS011;10997;52.242;8.168;2022-07-09T08:42:12;4.75;;;2.65;;
21671;SDS011;10997;52.242;8.168;2022-07-09T08:47:16;4.90;;;2.85;;
21671;SDS011;10997;52.242;8.168;2022-07-09T08:52:17;3.75;;;2.65;;
21671;SDS011;10997;52.242;8.168;2022-07-09T08:57:19;3.92;;;2.80;;
21671;SDS011;10997;52.242;8.168;2022-07-09T09:02:20;5.35;;;2.72;;
21671;SDS011;10997;52.242;8.168;2022-07-09T09:07:20;5.13;;;2.40;;
21671;SDS011;10997;52.242;8.168;2022-07-09T09:12:28;5.85;;;2.75;;
21671;SDS011;10997;52.242;8.168;2022-07-09T09:17:29;3.83;;;2.38;;
21671;SDS011;10997;52.242;8.168;2022-07-09T09:22:30;4.72;;;2.80;;
21671;SDS011;10997;52.242;8.168;2022-07-09T09:27:31;5.65;;;2.80;;
21671;SDS011;10997;52.242;8.168;2022-07-09T09:32:32;7.07;;;2.58;;
21671;SDS011;10997;52.242;8.168;2022-07-09T09:37:32;3.63;;;2.47;;
21671;SDS011;10997;52.242;8.168;2022-07-09T09:42:33;2.97;;;2.40;;
21671;SDS011;10997;52.242;8.168;2022-07-09T09:47:39;5.60;;;2.88;;
21671;SDS011;10997;52.242;8.168;2022-07-09T09:52:47;3.85;;;2.60;;
21671;SDS011;10997;52.242;8.168;2022-07-09T10:02:50;4.70;;;2.60;;
21671;SDS011;10997;52.242;8.168;2022-07-09T10:07:51;3.85;;;2.40;;
21671;SDS011;10997;52.242;8.168;2022-07-09T10:12:52;5.07;;;2.95;;
21671;SDS011;10997;52.242;8.168;2022-07-09T10:17:52;6.90;;;2.40;;
21671;SDS011;10997;52.242;8.168;2022-07-09T10:22:53;3.00;;;1.70;;
21671;SDS011;10997;52.242;8.168;2022-07-09T10:27:54;2.95;;;1.73;;
21671;SDS011;10997;52.242;8.168;2022-07-09T10:38:01;3.00;;;1.50;;
21671;SDS011;10997;52.242;8.168;2022-07-09T10:43:02;3.70;;;1.60;;
21671;SDS011;10997;52.242;8.168;2022-07-09T10:48:04;2.85;;;1.42;;
21671;SDS011;10997;52.242;8.168;2022-07-09T10:53:06;1.90;;;1.30;;
21671;SDS011;10997;52.242;8.168;2022-07-09T10:58:18;2.65;;;1.25;;
21671;SDS011;10997;52.242;8.168;2022-07-09T11:03:24;1.30;;;1.20;;
21671;SDS011;10997;52.242;8.168;2022-07-09T11:08:27;2.25;;;1.40;;
21671;SDS011;10997;52.242;8.168;2022-07-09T11:13:30;2.53;;;1.70;;
21671;SDS011;10997;52.242;8.168;2022-07-09T11:18:31;3.35;;;1.40;;
21671;SDS011;10997;52.242;8.168;2022-07-09T11:23:31;3.78;;;1.35;;
21671;SDS011;10997;52.242;8.168;2022-07-09T11:28:32;2.38;;;1.33;;
21671;SDS011;10997;52.242;8.168;2022-07-09T11:33:33;1.67;;;1.42;;
21671;SDS011;10997;52.242;8.168;2022-07-09T11:38:55;3.45;;;1.42;;
21671;SDS011;10997;52.242;8.168;2022-07-09T11:43:57;1.30;;;1.20;;
21671;SDS011;10997;52.242;8.168;2022-07-09T11:48:58;2.08;;;1.50;;
21671;SDS011;10997;52.242;8.168;2022-07-09T11:54:00;1.65;;;1.20;;
21671;SDS011;10997;52.242;8.168;2022-07-09T11:59:01;1.38;;;1.10;;
21671;SDS011;10997;52.242;8.168;2022-07-09T12:04:01;2.05;;;1.17;;
21671;SDS011;10997;52.242;8.168;2022-07-09T12:09:03;2.22;;;1.40;;
21671;SDS011;10997;52.242;8.168;2022-07-09T12:14:07;2.30;;;1.37;;
21671;SDS011;10997;52.242;8.168;2022-07-09T12:19:08;3.42;;;0.95;;
21671;SDS011;10997;52.242;8.168;2022-07-09T12:24:08;1.50;;;1.00;;
21671;SDS011;10997;52.242;8.168;2022-07-09T12:29:09;1.90;;;0.93;;
21671;SDS011;10997;52.242;8.168;2022-07-09T12:34:10;2.28;;;0.80;;
21671;SDS011;10997;52.242;8.168;2022-07-09T12:39:10;2.75;;;1.00;;
21671;SDS011;10997;52.242;8.168;2022-07-09T12:44:11;2.25;;;1.17;;
21671;SDS011;10997;52.242;8.168;2022-07-09T12:49:12;3.53;;;1.20;;
21671;SDS011;10997;52.242;8.168;2022-07-09T12:54:13;2.67;;;1.42;;
21671;SDS011;10997;52.242;8.168;2022-07-09T12:59:14;2.38;;;1.42;;
21671;SDS011;10997;52.242;8.168;2022-07-09T13:04:14;2.13;;;1.38;;
21671;SDS011;10997;52.242;8.168;2022-07-09T13:09:17;3.80;;;1.38;;
21671;SDS011;10997;52.242;8.168;2022-07-09T13:14:18;3.60;;;1.08;;
21671;SDS011;10997;52.242;8.168;2022-07-09T13:19:18;1.98;;;1.15;;
21671;SDS011;10997;52.242;8.168;2022-07-09T13:24:19;1.92;;;1.13;;
21671;SDS011;10997;52.242;8.168;2022-07-09T13:29:20;3.28;;;1.13;;
21671;SDS011;10997;52.242;8.168;2022-07-09T13:34:20;2.25;;;1.10;;
21671;SDS011;10997;52.242;8.168;2022-07-09T13:39:21;3.50;;;1.33;;
21671;SDS011;10997;52.242;8.168;2022-07-09T13:44:22;3.60;;;1.30;;
21671;SDS011;10997;52.242;8.168;2022-07-09T13:49:22;2.75;;;1.30;;
21671;SDS011;10997;52.242;8.168;2022-07-09T13:54:23;4.43;;;1.30;;
21671;SDS011;10997;52.242;8.168;2022-07-09T13:59:24;3.53;;;1.40;;
21671;SDS011;10997;52.242;8.168;2022-07-09T14:04:24;4.88;;;1.48;;
21671;SDS011;10997;52.242;8.168;2022-07-09T14:09:25;4.65;;;1.42;;
21671;SDS011;10997;52.242;8.168;2022-07-09T14:14:26;2.75;;;1.20;;
21671;SDS011;10997;52.242;8.168;2022-07-09T14:19:27;3.53;;;1.35;;
21671;SDS011;10997;52.242;8.168;2022-07-09T14:24:27;3.95;;;1.25;;
21671;SDS011;10997;52.242;8.168;2022-07-09T14:29:28;5.88;;;1.30;;
21671;SDS011;10997;52.242;8.168;2022-07-09T14:34:29;4.57;;;1.38;;
21671;SDS011;10997;52.242;8.168;2022-07-09T14:39:30;6.05;;;1.50;;
21671;SDS011;10997;52.242;8.168;2022-07-09T14:44:30;6.45;;;1.75;;
21671;SDS011;10997;52.242;8.168;2022-07-09T14:49:31;6.90;;;1.65;;
21671;SDS011;10997;52.242;8.168;2022-07-09T14:54:32;6.10;;;1.60;;
21671;SDS011;10997;52.242;8.168;2022-07-09T14:59:32;8.65;;;1.40;;
21671;SDS011;10997;52.242;8.168;2022-07-09T15:04:33;5.03;;;1.38;;
21671;SDS011;10997;52.242;8.168;2022-07-09T15:09:34;4.88;;;1.70;;
21671;SDS011;10997;52.242;8.168;2022-07-09T15:14:34;4.65;;;1.42;;
21671;SDS011;10997;52.242;8.168;2022-07-09T15:19:38;4.65;;;1.52;;
21671;SDS011;10997;52.242;8.168;2022-07-09T15:24:45;6.70;;;1.65;;
21671;SDS011;10997;52.242;8.168;2022-07-09T15:29:45;4.85;;;1.65;;
21671;SDS011;10997;52.242;8.168;2022-07-09T15:34:46;4.18;;;1.50;;
21671;SDS011;10997;52.242;8.168;2022-07-09T15:39:47;7.13;;;1.80;;
21671;SDS011;10997;52.242;8.168;2022-07-09T15:44:47;6.72;;;1.70;;
21671;SDS011;10997;52.242;8.168;2022-07-09T15:49:49;5.75;;;1.60;;
21671;SDS011;10997;52.242;8.168;2022-07-09T15:54:49;4.57;;;1.58;;
21671;SDS011;10997;52.242;8.168;2022-07-09T15:59:50;5.15;;;1.52;;
21671;SDS011;10997;52.242;8.168;2022-07-09T16:04:51;4.65;;;1.10;;
21671;SDS011;10997;52.242;8.168;2022-07-09T16:09:51;4.75;;;1.75;;
21671;SDS011;10997;52.242;8.168;2022-07-09T16:14:52;5.82;;;1.42;;
21671;SDS011;10997;52.242;8.168;2022-07-09T16:19:53;4.57;;;1.30;;
21671;SDS011;10997;52.242;8.168;2022-07-09T16:24:54;4.50;;;1.10;;
21671;SDS011;10997;52.242;8.168;2022-07-09T16:29:55;3.38;;;1.25;;
21671;SDS011;10997;52.242;8.168;2022-07-09T16:34:55;4.55;;;1.13;;
21671;SDS011;10997;52.242;8.168;2022-07-09T16:39:56;2.80;;;1.20;;
21671;SDS011;10997;52.242;8.168;2022-07-09T16:44:58;7.50;;;1.70;;
21671;SDS011;10997;52.242;8.168;2022-07-09T16:49:58;5.63;;;1.17;;
21671;SDS011;10997;52.242;8.168;2022-07-09T16:54:59;5.53;;;1.20;;
21671;SDS011;10997;52.242;8.168;2022-07-09T17:00:01;6.47;;;1.40;;
21671;SDS011;10997;52.242;8.168;2022-07-09T17:05:08;5.10;;;1.15;;
21671;SDS011;10997;52.242;8.168;2022-07-09T17:10:10;6.38;;;1.38;;
21671;SDS011;10997;52.242;8.168;2022-07-09T17:15:12;5.78;;;1.33;;
21671;SDS011;10997;52.242;8.168;2022-07-09T17:20:13;3.25;;;0.90;;
21671;SDS011;10997;52.242;8.168;2022-07-09T17:25:14;6.88;;;1.20;;
21671;SDS011;10997;52.242;8.168;2022-07-09T17:30:15;6.50;;;1.38;;
21671;SDS011;10997;52.242;8.168;2022-07-09T17:35:16;2.88;;;0.80;;
21671;SDS011;10997;52.242;8.168;2022-07-09T17:40:17;8.15;;;1.30;;
21671;SDS011;10997;52.242;8.168;2022-07-09T17:45:19;8.05;;;1.20;;
21671;SDS011;10997;52.242;8.168;2022-07-09T17:50:19;2.95;;;1.10;;
21671;SDS011;10997;52.242;8.168;2022-07-09T17:55:20;6.47;;;1.33;;
21671;SDS011;10997;52.242;8.168;2022-07-09T18:00:22;3.92;;;1.17;;
21671;SDS011;10997;52.242;8.168;2022-07-09T18:05:25;5.43;;;1.20;;
21671;SDS011;10997;52.242;8.168;2022-07-09T18:10:27;6.65;;;1.40;;
21671;SDS011;10997;52.242;8.168;2022-07-09T18:15:27;6.40;;;1.50;;
21671;SDS011;10997;52.242;8.168;2022-07-09T18:20:28;5.25;;;1.30;;
21671;SDS011;10997;52.242;8.168;2022-07-09T18:25:31;7.45;;;1.50;;
21671;SDS011;10997;52.242;8.168;2022-07-09T18:30:32;4.18;;;1.30;;
21671;SDS011;10997;52.242;8.168;2022-07-09T18:35:32;4.60;;;1.10;;
21671;SDS011;10997;52.242;8.168;2022-07-09T18:40:33;3.88;;;1.10;;
21671;SDS011;10997;52.242;8.168;2022-07-09T18:45:34;5.70;;;1.42;;
21671;SDS011;10997;52.242;8.168;2022-07-09T18:50:35;7.88;;;1.40;;
21671;SDS011;10997;52.242;8.168;2022-07-09T18:55:36;3.88;;;1.20;;
21671;SDS011;10997;52.242;8.168;2022-07-09T19:00:37;5.55;;;0.90;;
21671;SDS011;10997;52.242;8.168;2022-07-09T19:05:37;5.60;;;1.27;;
21671;SDS011;10997;52.242;8.168;2022-07-09T19:10:38;5.35;;;1.33;;
21671;SDS011;10997;52.242;8.168;2022-07-09T19:15:39;4.38;;;1.30;;
21671;SDS011;10997;52.242;8.168;2022-07-09T19:20:39;5.95;;;1.35;;
21671;SDS011;10997;52.242;8.168;2022-07-09T19:25:40;5.22;;;1.40;;
21671;SDS011;10997;52.242;8.168;2022-07-09T19:30:41;4.03;;;1.27;;
21671;SDS011;10997;52.242;8.168;2022-07-09T19:36:00;6.45;;;1.30;;
21671;SDS011;10997;52.242;8.168;2022-07-09T19:41:01;4.22;;;1.40;;
21671;SDS011;10997;52.242;8.168;2022-07-09T19:46:02;11.20;;;1.42;;
21671;SDS011;10997;52.242;8.168;2022-07-09T19:51:03;6.97;;;1.42;;
21671;SDS011;10997;52.242;8.168;2022-07-09T19:56:04;5.10;;;1.25;;
21671;SDS011;10997;52.242;8.168;2022-07-09T20:01:05;6.22;;;1.30;;
21671;SDS011;10997;52.242;8.168;2022-07-09T20:06:05;6.50;;;1.45;;
21671;SDS011;10997;52.242;8.168;2022-07-09T20:11:06;5.97;;;1.30;;
21671;SDS011;10997;52.242;8.168;2022-07-09T20:16:07;12.98;;;1.48;;
21671;SDS011;10997;52.242;8.168;2022-07-09T20:21:09;8.30;;;1.52;;
21671;SDS011;10997;52.242;8.168;2022-07-09T20:26:10;7.90;;;1.40;;
21671;SDS011;10997;52.242;8.168;2022-07-09T20:31:11;6.68;;;1.40;;
21671;SDS011;10997;52.242;8.168;2022-07-09T20:36:12;10.30;;;1.40;;
21671;SDS011;10997;52.242;8.168;2022-07-09T20:41:13;8.68;;;1.40;;
21671;SDS011;10997;52.242;8.168;2022-07-09T20:46:13;6.72;;;1.38;;
21671;SDS011;10997;52.242;8.168;2022-07-09T20:51:14;3.97;;;1.30;;
21671;SDS011;10997;52.242;8.168;2022-07-09T20:56:17;5.70;;;1.38;;
21671;SDS011;10997;52.242;8.168;2022-07-09T21:01:17;4.97;;;1.38;;
21671;SDS011;10997;52.242;8.168;2022-07-09T21:06:18;6.15;;;1.23;;
21671;SDS011;10997;52.242;8.168;2022-07-09T21:11:19;9.80;;;1.75;;
21671;SDS011;10997;52.242;8.168;2022-07-09T21:16:20;8.48;;;1.70;;
21671;SDS011;10997;52.242;8.168;2022-07-09T21:21:40;4.90;;;1.35;;
21671;SDS011;10997;52.242;8.168;2022-07-09T21:26:41;7.93;;;1.33;;
21671;SDS011;10997;52.242;8.168;2022-07-09T21:31:41;5.93;;;1.20;;
21671;SDS011;10997;52.242;8.168;2022-07-09T21:36:43;7.28;;;1.65;;
21671;SDS011;10997;52.242;8.168;2022-07-09T21:41:43;6.93;;;1.50;;
21671;SDS011;10997;52.242;8.168;2022-07-09T21:46:44;6.75;;;1.40;;
21671;SDS011;10997;52.242;8.168;2022-07-09T21:51:45;6.35;;;1.45;;
21671;SDS011;10997;52.242;8.168;2022-07-09T21:56:45;6.85;;;1.45;;
21671;SDS011;10997;52.242;8.168;2022-07-09T22:01:46;7.60;;;1.50;;
21671;SDS011;10997;52.242;8.168;2022-07-09T22:06:47;5.18;;;1.50;;
21671;SDS011;10997;52.242;8.168;2022-07-09T22:11:47;4.10;;;1.40;;
21671;SDS011;10997;52.242;8.168;2022-07-09T22:16:48;11.27;;;1.60;;
21671;SDS011;10997;52.242;8.168;2022-07-09T22:21:49;5.32;;;1.23;;
21671;SDS011;10997;52.242;8.168;2022-07-09T22:26:50;7.95;;;1.60;;
21671;SDS011;10997;52.242;8.168;2022-07-09T22:31:50;5.85;;;1.60;;
21671;SDS011;10997;52.242;8.168;2022-07-09T22:36:51;9.35;;;1.60;;
21671;SDS011;10997;52.242;8.168;2022-07-09T22:41:52;5.80;;;1.30;;
21671;SDS011;10997;52.242;8.168;2022-07-09T22:46:52;3.97;;;1.08;;
21671;SDS011;10997;52.242;8.168;2022-07-09T22:51:53;5.20;;;1.40;;
21671;SDS011;10997;52.242;8.168;2022-07-09T22:56:55;6.07;;;1.35;;
21671;SDS011;10997;52.242;8.168;2022-07-09T23:01:56;9.02;;;1.60;;
21671;SDS011;10997;52.242;8.168;2022-07-09T23:06:57;8.40;;;1.30;;
21671;SDS011;10997;52.242;8.168;2022-07-09T23:11:57;7.07;;;1.23;;
21671;SDS011;10997;52.242;8.168;2022-07-09T23:16:58;6.72;;;1.60;;
21671;SDS011;10997;52.242;8.168;2022-07-09T23:21:59;7.05;;;1.38;;
21671;SDS011;10997;52.242;8.168;2022-07-09T23:27:00;12.45;;;2.10;;
21671;SDS011;10997;52.242;8.168;2022-07-09T23:32:01;3.67;;;1.10;;
21671;SDS011;10997;52.242;8.168;2022-07-09T23:37:02;7.00;;;1.52;;
21671;SDS011;10997;52.242;8.168;2022-07-09T23:42:03;7.05;;;1.40;;
21671;SDS011;10997;52.242;8.168;2022-07-09T23:47:05;7.65;;;1.50;;
21671;SDS011;10997;52.242;8.168;2022-07-09T23:52:07;9.15;;;1.70;;
21671;SDS011;10997;52.242;8.168;2022-07-09T23:57:08;8.07;;;1.70;;
